Time;durP1;ratioP1;P1;durP2;ratioP2;P2;SDS_P1;SDS_P2;PMS_P1;PMS_P2;Temp;Humidity;BMP_temperature;BMP_pressure;BME280_temperature;BME280_humidity;BME280_pressure;Samples;Min_cycle;Max_cycle;Signal;HPM_P1;HPM_P2
2021/07/22 00:00:39;;;;;;;;;;;;;;;20.94;60.96;100614.13;5137278;28;831;-58
2021/07/22 00:03:04;;;;;;;;;;;;;;;20.51;62.76;100626.22;5136998;28;799;-55
2021/07/22 00:05:30;;;;;;;;;;;;;;;20.59;61.78;100624.69;5136776;28;1142;-51
2021/07/22 00:07:59;;;;;;;;;;;;;;;20.33;61.40;100622.41;5136827;28;882;-51
2021/07/22 00:10:24;;;;;;;;;;;;;;;20.87;61.97;100613.72;5137407;28;783;-58
2021/07/22 00:12:50;;;;;;;;;;;;;;;21.29;60.15;100617.25;5154134;27;2054;-58
2021/07/22 00:15:15;;;;;;;;;;;;;;;21.33;60.14;100621.03;5157381;27;799;-58
2021/07/22 00:17:41;;;;;;;;;;;;;;;21.29;58.99;100620.03;5157772;27;798;-55
2021/07/22 00:20:06;;;;;;;;;;;;;;;20.64;61.13;100616.31;5157522;27;764;-56
2021/07/22 00:22:34;;;;;;;;;;;;;;;20.54;61.93;100600.75;5157661;27;744;-54
2021/07/22 00:25:00;;;;;;;;;;;;;;;20.13;59.95;100596.78;5157333;27;747;-58
2021/07/22 00:27:25;;;;;;;;;;;;;;;20.61;62.09;100598.41;5138886;27;1030;-58
2021/07/22 00:29:52;;;;;;;;;;;;;;;20.84;61.13;100598.56;5157495;27;822;-55
2021/07/22 00:32:17;;;;;;;;;;;;;;;20.85;61.15;100611.25;5157673;27;731;-58
2021/07/22 00:34:42;;;;;;;;;;;;;;;20.89;61.00;100612.28;5157451;27;1890;-58
2021/07/22 00:37:08;;;;;;;;;;;;;;;20.91;61.07;100606.44;5157506;27;790;-58
2021/07/22 00:39:36;;;;;;;;;;;;;;;20.65;61.96;100617.94;5157598;27;751;-58
2021/07/22 00:42:02;;;;;;;;;;;;;;;20.55;61.94;100602.38;5157127;27;961;-50
2021/07/22 00:44:28;;;;;;;;;;;;;;;20.14;61.45;100606.69;5138969;27;771;-59
2021/07/22 00:46:54;;;;;;;;;;;;;;;20.68;62.19;100612.66;5138886;27;1247;-57
2021/07/22 00:49:21;;;;;;;;;;;;;;;20.86;61.62;100607.38;5157989;27;724;-50
2021/07/22 00:51:46;;;;;;;;;;;;;;;21.30;59.99;100605.06;5138980;27;1259;-52
2021/07/22 00:54:12;;;;;;;;;;;;;;;21.11;60.64;100586.69;5138829;27;1988;-50
2021/07/22 00:56:39;;;;;;;;;;;;;;;21.05;60.68;100610.00;5156739;27;965;-49
2021/07/22 00:59:05;;;;;;;;;;;;;;;20.58;62.29;100606.47;5160665;27;892;-53
2021/07/22 01:01:32;;;;;;;;;;;;;;;20.63;61.02;100609.97;5142659;27;1088;-47
2021/07/22 01:03:58;;;;;;;;;;;;;;;20.31;61.85;100608.91;5161105;27;1110;-53
2021/07/22 01:06:24;;;;;;;;;;;;;;;20.83;62.01;100605.19;5142896;27;1267;-57
2021/07/22 01:08:50;;;;;;;;;;;;;;;21.12;60.82;100615.13;5142733;27;1109;-58
2021/07/22 01:11:22;;;;;;;;;;;;;;;21.00;61.14;100612.91;5141429;27;1248;-51
2021/07/22 01:13:48;;;;;;;;;;;;;;;21.27;60.11;100608.47;5161139;27;1980;-58
2021/07/22 01:16:16;;;;;;;;;;;;;;;20.64;62.35;100619.09;5160761;27;806;-58
2021/07/22 01:18:43;;;;;;;;;;;;;;;20.32;63.37;100607.75;5142451;27;1153;-58
2021/07/22 01:21:09;;;;;;;;;;;;;;;19.80;61.44;100610.53;5160758;27;731;-58
2021/07/22 01:23:36;;;;;;;;;;;;;;;20.25;63.24;100614.81;5160583;27;763;-58
2021/07/22 01:26:22;;;;;;;;;;;;;;;20.71;61.60;100622.28;5117525;27;1029;-50
2021/07/22 01:28:49;;;;;;;;;;;;;;;20.84;61.32;100629.75;5160742;27;767;-58
2021/07/22 01:31:15;;;;;;;;;;;;;;;21.06;60.52;100636.53;5142016;27;1133;-54
2021/07/22 01:33:42;;;;;;;;;;;;;;;20.60;62.03;100637.41;5141533;27;1995;-50
2021/07/22 01:36:08;;;;;;;;;;;;;;;20.40;62.73;100639.41;5160578;27;798;-48
2021/07/22 01:38:34;;;;;;;;;;;;;;;20.50;61.12;100632.88;5141810;27;1173;-58
2021/07/22 01:41:03;;;;;;;;;;;;;;;20.13;63.06;100646.47;5141712;27;1364;-58
2021/07/22 01:43:29;;;;;;;;;;;;;;;20.86;61.69;100646.06;5160667;27;763;-58
2021/07/22 01:45:56;;;;;;;;;;;;;;;21.02;60.94;100636.31;5141605;27;1131;-49
2021/07/22 01:48:21;;;;;;;;;;;;;;;21.09;60.70;100641.44;5124687;27;1944;-49
2021/07/22 01:50:49;;;;;;;;;;;;;;;21.27;60.33;100634.16;5158288;27;1090;-58
2021/07/22 01:53:15;;;;;;;;;;;;;;;20.52;62.38;100641.66;5120799;27;1974;-58
2021/07/22 01:55:41;;;;;;;;;;;;;;;20.44;62.85;100645.13;5139345;27;763;-49
2021/07/22 01:58:07;;;;;;;;;;;;;;;20.13;61.01;100651.16;5120890;27;1133;-57
2021/07/22 02:00:38;;;;;;;;;;;;;;;20.45;63.10;100649.53;5121111;27;1319;-50
2021/07/22 02:03:04;;;;;;;;;;;;;;;20.93;61.52;100656.69;5139056;27;795;-59
2021/07/22 02:05:50;;;;;;;;;;;;;;;21.05;60.93;100654.25;5134038;27;1330;-58
2021/07/22 02:08:16;;;;;;;;;;;;;;;21.11;60.68;100647.50;5137367;27;1124;-58
2021/07/22 02:10:43;;;;;;;;;;;;;;;20.98;60.86;100642.78;5137716;27;1627;-58
2021/07/22 02:13:09;;;;;;;;;;;;;;;20.74;61.92;100638.25;5137171;27;1910;-58
2021/07/22 02:15:42;;;;;;;;;;;;;;;20.67;61.64;100635.03;5137487;27;1161;-54
2021/07/22 02:18:09;;;;;;;;;;;;;;;19.86;61.61;100640.84;5137474;27;1299;-58
2021/07/22 02:20:35;;;;;;;;;;;;;;;20.51;62.62;100629.00;5137754;27;1330;-58
2021/07/22 02:23:00;;;;;;;;;;;;;;;20.76;61.05;100630.50;5138860;27;775;-58
2021/07/22 02:25:44;;;;;;;;;;;;;;;20.87;61.17;100631.09;5138517;27;653;-58
2021/07/22 02:28:11;;;;;;;;;;;;;;;21.11;60.53;100624.53;5137890;27;957;-54
2021/07/22 02:30:37;;;;;;;;;;;;;;;21.01;60.90;100631.94;5139323;27;772;-53
2021/07/22 02:33:03;;;;;;;;;;;;;;;21.00;61.06;100633.06;5137287;27;1967;-56
2021/07/22 02:35:28;;;;;;;;;;;;;;;20.82;61.82;100640.31;5137490;27;1200;-57
2021/07/22 02:38:14;;;;;;;;;;;;;;;20.30;61.48;100628.50;5086374;27;1213;-56
2021/07/22 02:40:40;;;;;;;;;;;;;;;20.09;63.12;100644.59;5137299;27;1137;-57
2021/07/22 02:43:06;;;;;;;;;;;;;;;20.45;63.71;100650.34;5137721;27;961;-55
2021/07/22 02:45:33;;;;;;;;;;;;;;;20.74;62.44;100654.03;5138234;27;771;-56
2021/07/22 02:47:58;;;;;;;;;;;;;;;20.89;61.85;100662.03;5138026;27;775;-54
2021/07/22 02:50:24;;;;;;;;;;;;;;;21.04;61.09;100669.19;5136914;27;1489;-49
2021/07/22 02:52:55;;;;;;;;;;;;;;;20.37;63.34;100661.25;5137067;27;1992;-57
2021/07/22 02:55:21;;;;;;;;;;;;;;;20.30;63.47;100661.66;5137694;27;813;-52
2021/07/22 02:57:47;;;;;;;;;;;;;;;20.12;60.98;100671.63;5137594;27;1012;-48
2021/07/22 03:00:13;;;;;;;;;;;;;;;20.59;62.35;100668.91;5119921;27;1223;-51
2021/07/22 03:02:40;;;;;;;;;;;;;;;21.15;61.07;100669.81;5136978;27;1393;-56
2021/07/22 03:05:07;;;;;;;;;;;;;;;21.12;60.95;100676.75;5130187;27;1305;-57
2021/07/22 03:07:33;;;;;;;;;;;;;;;21.18;60.75;100664.50;5140544;27;1153;-57
2021/07/22 03:09:59;;;;;;;;;;;;;;;21.46;59.88;100674.69;5158596;27;763;-59
2021/07/22 03:12:26;;;;;;;;;;;;;;;21.05;61.00;100675.56;5159081;27;980;-54
2021/07/22 03:14:56;;;;;;;;;;;;;;;20.51;63.06;100673.19;5140108;27;1972;-51
2021/07/22 03:17:21;;;;;;;;;;;;;;;20.51;61.37;100668.47;5139356;27;805;-55
2021/07/22 03:19:49;;;;;;;;;;;;;;;20.10;59.89;100680.19;5157933;27;747;-58
2021/07/22 03:22:18;;;;;;;;;;;;;;;20.46;61.94;100681.56;5139679;27;1332;-55
2021/07/22 03:25:13;;;;;;;;;;;;;;;20.58;62.50;100686.59;5140230;27;1266;-54
2021/07/22 03:27:54;;;;;;;;;;;;;;;20.76;61.96;100682.16;5123984;27;1157;-57
2021/07/22 03:30:27;;;;;;;;;;;;;;;21.00;61.06;100690.31;5139782;27;1318;-54
2021/07/22 03:33:16;;;;;;;;;;;;;;;20.84;61.45;100700.81;5119142;27;1898;-54
2021/07/22 03:35:47;;;;;;;;;;;;;;;20.49;62.68;100692.81;5139815;27;2094;-55
2021/07/22 03:38:16;;;;;;;;;;;;;;;20.34;61.35;100706.88;5139900;27;1141;-55
2021/07/22 03:41:02;;;;;;;;;;;;;;;20.10;62.91;100699.50;5157705;27;1101;-54
2021/07/22 03:43:28;;;;;;;;;;;;;;;20.66;62.65;100711.59;5139675;27;1236;-52
2021/07/22 03:45:58;;;;;;;;;;;;;;;20.98;61.46;100700.81;5139347;27;1129;-54
2021/07/22 03:48:26;;;;;;;;;;;;;;;20.81;61.83;100705.00;5139702;27;1131;-50
2021/07/22 03:50:52;;;;;;;;;;;;;;;21.02;60.90;100704.63;5139374;27;1280;-54
2021/07/22 03:53:19;;;;;;;;;;;;;;;20.39;63.04;100712.31;5139486;27;1976;-52
2021/07/22 03:55:45;;;;;;;;;;;;;;;20.54;61.34;100710.41;5147107;27;1370;-54
2021/07/22 03:58:46;;;;;;;;;;;;;;;20.26;61.87;100710.31;5052950;28;1215;-53
2021/07/22 04:01:38;;;;;;;;;;;;;;;20.77;62.30;100706.72;5155901;27;1654;-47
2021/07/22 04:04:12;;;;;;;;;;;;;;;20.91;61.47;100703.19;5150298;27;1183;-53
2021/07/22 04:06:40;;;;;;;;;;;;;;;21.03;61.22;100709.03;5169113;27;1477;-48
2021/07/22 04:09:12;;;;;;;;;;;;;;;20.94;61.36;100708.09;5142879;27;1141;-52
2021/07/22 04:11:51;;;;;;;;;;;;;;;20.56;62.75;100720.03;5149239;27;1359;-55
2021/07/22 04:14:38;;;;;;;;;;;;;;;20.43;61.67;100710.59;5127605;27;1976;-56
2021/07/22 04:17:16;;;;;;;;;;;;;;;19.95;61.64;100711.59;5118959;28;1419;-60
2021/07/22 04:20:01;;;;;;;;;;;;;;;20.68;62.94;100714.09;5122273;28;625;-57
2021/07/22 04:22:58;;;;;;;;;;;;;;;20.94;62.09;100708.91;5119425;28;1263;-49
2021/07/22 04:25:46;;;;;;;;;;;;;;;21.09;60.35;100710.56;5121944;28;1110;-55
2021/07/22 04:28:24;;;;;;;;;;;;;;;21.09;60.57;100718.84;5137454;28;828;-53
2021/07/22 04:30:50;;;;;;;;;;;;;;;20.68;62.20;100716.84;5135671;28;1363;-56
2021/07/22 04:33:33;;;;;;;;;;;;;;;20.62;61.77;100699.50;5139884;27;1988;-51
2021/07/22 04:36:33;;;;;;;;;;;;;;;20.09;62.65;100708.09;5092307;28;1236;-55
2021/07/22 04:39:27;;;;;;;;;;;;;;;20.94;62.32;100708.09;5130511;27;1450;-48
2021/07/22 04:41:58;;;;;;;;;;;;;;;21.12;61.46;100712.72;5165415;27;827;-52
2021/07/22 04:44:40;;;;;;;;;;;;;;;21.22;61.13;100719.19;5146798;27;1347;-49
2021/07/22 04:47:32;;;;;;;;;;;;;;;20.71;62.80;100721.75;5167395;27;1099;-57
2021/07/22 04:50:17;;;;;;;;;;;;;;;20.61;61.40;100722.72;5167465;27;1369;-58
2021/07/22 04:53:03;;;;;;;;;;;;;;;20.60;61.41;100725.78;5139494;27;1913;-51
2021/07/22 04:55:39;;;;;;;;;;;;;;;21.10;62.17;100723.28;5163790;27;1263;-52
2021/07/22 04:58:06;;;;;;;;;;;;;;;21.47;60.77;100713.13;5126872;27;1201;-49
2021/07/22 05:00:36;;;;;;;;;;;;;;;21.61;60.31;100721.44;5142722;27;1255;-55
2021/07/22 05:03:02;;;;;;;;;;;;;;;20.98;62.40;100725.72;5142530;27;1168;-46
2021/07/22 05:05:35;;;;;;;;;;;;;;;20.85;62.64;100722.59;5142624;27;1156;-46
2021/07/22 05:08:18;;;;;;;;;;;;;;;20.31;60.71;100722.13;5161761;27;825;-57
2021/07/22 05:10:51;;;;;;;;;;;;;;;21.23;61.82;100716.09;5142307;27;1164;-48
2021/07/22 05:13:21;;;;;;;;;;;;;;;21.66;60.79;100709.47;5155543;27;1906;-46
2021/07/22 05:15:59;;;;;;;;;;;;;;;21.64;60.60;100714.47;5159723;27;1167;-46
2021/07/22 05:18:34;;;;;;;;;;;;;;;21.07;62.28;100715.59;5159746;27;1132;-54
2021/07/22 05:21:37;;;;;;;;;;;;;;;20.83;62.39;100711.06;5117441;28;1093;-50
2021/07/22 05:24:12;;;;;;;;;;;;;;;20.40;60.49;100724.16;5117611;28;838;-58
2021/07/22 05:26:53;;;;;;;;;;;;;;;20.98;61.46;100720.19;5130254;27;1188;-51
2021/07/22 05:29:29;;;;;;;;;;;;;;;21.46;61.92;100719.81;5141907;27;1215;-54
2021/07/22 05:32:15;;;;;;;;;;;;;;;21.86;61.04;100709.00;5160790;27;782;-56
2021/07/22 05:34:54;;;;;;;;;;;;;;;21.32;63.10;100719.81;5143053;27;1909;-51
2021/07/22 05:37:39;;;;;;;;;;;;;;;20.96;63.91;100716.91;5163374;27;1393;-56
2021/07/22 05:40:05;;;;;;;;;;;;;;;20.61;59.58;100716.41;5163706;27;1228;-57
2021/07/22 05:42:30;;;;;;;;;;;;;;;20.21;59.51;100724.22;5165187;27;889;-57
2021/07/22 05:44:56;;;;;;;;;;;;;;;20.54;59.09;100727.00;5159450;27;987;-53
2021/07/22 05:47:21;;;;;;;;;;;;;;;20.44;56.55;100731.56;5160536;27;755;-56
2021/07/22 05:49:47;;;;;;;;;;;;;;;20.71;54.53;100713.47;5166455;27;1477;-54
2021/07/22 05:52:12;;;;;;;;;;;;;;;20.77;53.58;100725.25;5179994;27;1289;-51
2021/07/22 05:54:38;;;;;;;;;;;;;;;20.76;52.84;100718.91;5167780;27;1984;-51
2021/07/22 05:57:04;;;;;;;;;;;;;;;20.17;53.87;100718.44;5160043;27;968;-52
2021/07/22 05:59:29;;;;;;;;;;;;;;;20.04;54.38;100714.50;5176256;27;1621;-48
2021/07/22 06:01:55;;;;;;;;;;;;;;;20.47;53.55;100719.09;5168947;27;1390;-59
2021/07/22 06:04:20;;;;;;;;;;;;;;;19.94;54.72;100722.94;5180525;27;1080;-54
2021/07/22 06:06:46;;;;;;;;;;;;;;;19.76;54.93;100719.84;5159312;27;831;-57
2021/07/22 06:09:11;;;;;;;;;;;;;;;19.80;54.90;100726.44;5163452;27;1497;-55
2021/07/22 06:11:37;;;;;;;;;;;;;;;19.66;55.15;100714.47;5164636;27;1411;-55
2021/07/22 06:14:03;;;;;;;;;;;;;;;19.58;55.30;100723.38;5172708;27;1917;-55
2021/07/22 06:16:30;;;;;;;;;;;;;;;19.57;55.07;100719.81;5163187;27;1379;-56
2021/07/22 06:18:55;;;;;;;;;;;;;;;19.71;54.84;100719.09;5169713;27;1464;-48
2021/07/22 06:21:21;;;;;;;;;;;;;;;19.57;54.98;100710.72;5165470;27;1244;-47
2021/07/22 06:23:46;;;;;;;;;;;;;;;19.66;54.71;100726.31;5169749;27;1267;-53
2021/07/22 06:26:12;;;;;;;;;;;;;;;19.49;55.22;100715.75;5171179;27;825;-55
2021/07/22 06:28:37;;;;;;;;;;;;;;;19.83;54.45;100723.06;5164855;27;1474;-53
2021/07/22 06:31:03;;;;;;;;;;;;;;;19.77;54.57;100718.72;5170915;27;841;-58
2021/07/22 06:33:28;;;;;;;;;;;;;;;19.79;54.89;100713.75;5174231;27;1917;-54
2021/07/22 06:35:54;;;;;;;;;;;;;;;19.79;56.44;100716.50;5168020;27;1481;-53
2021/07/22 06:38:19;;;;;;;;;;;;;;;19.93;57.54;100707.50;5165579;27;1417;-55
2021/07/22 06:40:46;;;;;;;;;;;;;;;20.05;58.45;100721.69;5163798;27;1379;-53
2021/07/22 06:43:11;;;;;;;;;;;;;;;20.07;59.74;100704.81;5163631;27;1171;-55
2021/07/22 06:45:38;;;;;;;;;;;;;;;20.25;59.89;100711.44;5171670;27;1196;-53
2021/07/22 06:48:04;;;;;;;;;;;;;;;20.38;60.17;100710.66;5174142;27;795;-55
2021/07/22 06:50:29;;;;;;;;;;;;;;;20.09;61.79;100703.41;5164574;27;1425;-55
2021/07/22 06:52:54;;;;;;;;;;;;;;;19.96;62.99;100707.75;5163908;27;1986;-52
2021/07/22 06:55:20;;;;;;;;;;;;;;;19.49;63.17;100713.00;5160526;27;1355;-51
2021/07/22 06:57:48;;;;;;;;;;;;;;;19.68;63.74;100706.69;5156855;27;1268;-56
2021/07/22 07:00:13;;;;;;;;;;;;;;;20.22;63.37;100709.28;5157799;27;1354;-51
2021/07/22 07:02:38;;;;;;;;;;;;;;;20.39;62.58;100708.75;5160923;27;1505;-50
2021/07/22 07:05:06;;;;;;;;;;;;;;;20.58;62.26;100697.63;5171434;27;1128;-55
2021/07/22 07:07:31;;;;;;;;;;;;;;;20.16;63.69;100706.59;5163517;27;1393;-56
2021/07/22 07:09:57;;;;;;;;;;;;;;;20.06;64.43;100705.94;5165674;27;1359;-54
2021/07/22 07:12:23;;;;;;;;;;;;;;;19.87;63.79;100703.19;5157644;27;866;-49
2021/07/22 07:14:49;;;;;;;;;;;;;;;19.54;62.76;100700.28;5159700;27;1918;-53
2021/07/22 07:17:15;;;;;;;;;;;;;;;20.46;63.51;100723.78;5167730;27;806;-50
2021/07/22 07:19:41;;;;;;;;;;;;;;;20.74;62.67;100710.09;5179519;27;781;-56
2021/07/22 07:22:06;;;;;;;;;;;;;;;21.02;61.55;100718.44;5179451;27;584;-55
2021/07/22 07:24:32;;;;;;;;;;;;;;;20.79;62.23;100711.94;5154182;27;1391;-52
2021/07/22 07:26:57;;;;;;;;;;;;;;;20.10;64.31;100705.03;5144707;27;865;-51
2021/07/22 07:29:23;;;;;;;;;;;;;;;20.25;63.98;100719.72;5150281;27;743;-54
2021/07/22 07:31:48;;;;;;;;;;;;;;;19.71;63.42;100719.09;5158212;27;799;-55
2021/07/22 07:34:14;;;;;;;;;;;;;;;20.14;63.59;100716.31;5163814;27;1913;-54
2021/07/22 07:36:43;;;;;;;;;;;;;;;20.95;62.44;100716.06;5162644;27;1172;-54
2021/07/22 07:39:09;;;;;;;;;;;;;;;20.65;61.98;100731.22;5158149;27;819;-57
2021/07/22 07:41:35;;;;;;;;;;;;;;;20.99;62.17;100722.63;5138849;27;1013;-54
2021/07/22 07:44:00;;;;;;;;;;;;;;;20.79;63.60;100723.84;5158320;27;810;-53
2021/07/22 07:46:25;;;;;;;;;;;;;;;20.55;65.11;100723.09;5157794;27;846;-53
2021/07/22 07:48:51;;;;;;;;;;;;;;;20.29;64.90;100735.38;5157520;27;859;-55
2021/07/22 07:51:17;;;;;;;;;;;;;;;20.09;62.10;100731.00;5158392;27;1059;-56
2021/07/22 07:53:42;;;;;;;;;;;;;;;20.66;61.46;100733.69;5157604;27;1913;-57
2021/07/22 07:56:08;;;;;;;;;;;;;;;20.59;63.63;100727.72;5135490;27;945;-55
2021/07/22 07:58:33;;;;;;;;;;;;;;;21.01;62.89;100730.63;5137325;27;865;-58
2021/07/22 08:00:58;;;;;;;;;;;;;;;20.58;62.68;100733.56;5154531;27;1493;-54
2021/07/22 08:03:24;;;;;;;;;;;;;;;20.76;61.41;100749.31;5139056;27;1236;-56
2021/07/22 08:05:51;;;;;;;;;;;;;;;20.84;60.69;100737.53;5157923;27;1052;-57
2021/07/22 08:08:16;;;;;;;;;;;;;;;20.94;59.95;100733.78;5162213;27;874;-56
2021/07/22 08:10:42;;;;;;;;;;;;;;;20.29;61.88;100734.59;5162146;27;811;-56
2021/07/22 08:13:07;;;;;;;;;;;;;;;20.07;62.53;100740.69;5164645;27;1972;-57
2021/07/22 08:15:33;;;;;;;;;;;;;;;19.68;61.87;100728.75;5171822;27;1270;-59
2021/07/22 08:17:58;;;;;;;;;;;;;;;20.17;61.57;100735.84;5180107;27;838;-53
2021/07/22 08:20:23;;;;;;;;;;;;;;;20.51;60.90;100747.78;5182884;27;834;-52
2021/07/22 08:22:49;;;;;;;;;;;;;;;20.64;60.00;100737.88;5182805;27;866;-54
2021/07/22 08:25:14;;;;;;;;;;;;;;;20.55;59.67;100742.44;5166809;27;834;-54
2021/07/22 08:27:40;;;;;;;;;;;;;;;20.52;59.93;100741.09;5160741;27;957;-53
2021/07/22 08:30:06;;;;;;;;;;;;;;;20.25;60.35;100745.38;5161834;27;778;-47
2021/07/22 08:32:31;;;;;;;;;;;;;;;19.91;61.53;100749.19;5162182;27;1504;-56
2021/07/22 08:34:57;;;;;;;;;;;;;;;19.85;61.91;100749.56;5168695;27;1913;-54
2021/07/22 08:37:22;;;;;;;;;;;;;;;19.49;61.57;100746.09;5165632;27;1488;-51
2021/07/22 08:39:49;;;;;;;;;;;;;;;19.92;62.00;100744.50;5168806;27;1385;-57
2021/07/22 08:42:14;;;;;;;;;;;;;;;20.16;60.84;100744.41;5166867;27;882;-57
2021/07/22 08:44:40;;;;;;;;;;;;;;;20.27;60.50;100750.63;5161372;27;822;-58
2021/07/22 08:47:06;;;;;;;;;;;;;;;20.36;59.98;100743.31;5161941;27;802;-59
2021/07/22 08:49:32;;;;;;;;;;;;;;;20.34;60.14;100740.00;5161436;27;842;-56
2021/07/22 08:51:57;;;;;;;;;;;;;;;20.26;60.39;100737.91;5161449;27;1071;-59
2021/07/22 08:54:23;;;;;;;;;;;;;;;19.96;61.75;100751.91;5142132;27;1988;-49
2021/07/22 08:56:48;;;;;;;;;;;;;;;19.94;61.42;100742.25;5152310;27;1131;-57
2021/07/22 08:59:13;;;;;;;;;;;;;;;19.73;60.80;100745.25;5122290;27;883;-55
2021/07/22 09:01:39;;;;;;;;;;;;;;;19.98;61.67;100743.31;5122121;27;747;-56
2021/07/22 09:04:04;;;;;;;;;;;;;;;20.51;59.85;100737.53;5121721;27;1125;-58
2021/07/22 09:06:30;;;;;;;;;;;;;;;20.63;59.46;100744.53;5140317;27;807;-48
2021/07/22 09:08:55;;;;;;;;;;;;;;;20.48;59.77;100740.91;5140643;27;784;-53
2021/07/22 09:11:21;;;;;;;;;;;;;;;20.42;60.06;100736.56;5140305;27;953;-57
2021/07/22 09:13:49;;;;;;;;;;;;;;;19.93;61.52;100740.63;5140191;27;1980;-56
2021/07/22 09:16:15;;;;;;;;;;;;;;;19.91;61.87;100729.03;5140120;27;787;-55
2021/07/22 09:18:44;;;;;;;;;;;;;;;19.40;61.98;100725.78;5139326;27;747;-57
2021/07/22 09:21:22;;;;;;;;;;;;;;;19.75;62.87;100733.94;5140235;27;771;-57
2021/07/22 09:24:06;;;;;;;;;;;;;;;20.50;62.32;100732.31;5140127;27;743;-58
2021/07/22 09:26:32;;;;;;;;;;;;;;;20.97;62.59;100740.63;5139783;27;949;-57
2021/07/22 09:29:03;;;;;;;;;;;;;;;20.83;64.42;100724.03;5140564;27;751;-51
2021/07/22 09:31:28;;;;;;;;;;;;;;;20.91;65.29;100734.38;5151046;27;1477;-59
2021/07/22 09:33:54;;;;;;;;;;;;;;;20.51;63.68;100729.25;5171520;27;1982;-60
2021/07/22 09:36:20;;;;;;;;;;;;;;;20.04;59.96;100736.59;5142088;27;866;-58
2021/07/22 09:38:46;;;;;;;;;;;;;;;21.05;62.33;100726.13;5179194;27;790;-55
2021/07/22 09:41:20;;;;;;;;;;;;;;;21.20;63.01;100728.59;5141776;27;961;-57
2021/07/22 09:43:46;;;;;;;;;;;;;;;21.42;62.24;100718.78;5160876;27;956;-56
2021/07/22 09:46:11;;;;;;;;;;;;;;;21.33;61.54;100720.63;5159805;27;885;-57
2021/07/22 09:48:37;;;;;;;;;;;;;;;20.84;61.74;100737.53;5160693;27;823;-57
2021/07/22 09:51:03;;;;;;;;;;;;;;;20.75;61.23;100739.38;5161143;27;1102;-58
2021/07/22 09:53:28;;;;;;;;;;;;;;;20.34;62.07;100740.00;5181560;27;1917;-57
2021/07/22 09:55:54;;;;;;;;;;;;;;;20.09;62.39;100733.78;5157925;27;1073;-59
2021/07/22 09:58:20;;;;;;;;;;;;;;;19.77;61.49;100727.00;5159376;27;878;-59
2021/07/22 10:00:49;;;;;;;;;;;;;;;19.98;61.54;100726.75;5160466;27;798;-56
2021/07/22 10:03:15;;;;;;;;;;;;;;;20.34;61.19;100728.97;5160165;27;795;-56
2021/07/22 10:06:10;;;;;;;;;;;;;;;20.39;60.62;100726.13;5159803;27;1282;-56
2021/07/22 10:08:35;;;;;;;;;;;;;;;20.46;60.16;100718.28;5142050;27;1199;-56
2021/07/22 10:11:01;;;;;;;;;;;;;;;20.51;59.85;100728.44;5140040;27;847;-59
2021/07/22 10:13:27;;;;;;;;;;;;;;;20.57;59.42;100720.88;5140928;27;1988;-56
2021/07/22 10:15:53;;;;;;;;;;;;;;;20.10;61.10;100718.00;5159948;27;795;-55
2021/07/22 10:18:19;;;;;;;;;;;;;;;20.01;61.48;100715.13;5159819;27;794;-50
2021/07/22 10:20:45;;;;;;;;;;;;;;;19.61;60.57;100723.59;5141397;27;799;-53
2021/07/22 10:23:10;;;;;;;;;;;;;;;19.82;61.91;100729.72;5140564;27;1358;-54
2021/07/22 10:25:36;;;;;;;;;;;;;;;20.10;61.10;100729.88;5159229;27;747;-57
2021/07/22 10:28:03;;;;;;;;;;;;;;;20.33;60.30;100736.44;5159291;27;977;-51
2021/07/22 10:30:28;;;;;;;;;;;;;;;20.45;59.43;100730.44;5158814;27;763;-56
2021/07/22 10:33:00;;;;;;;;;;;;;;;20.55;59.17;100723.91;5159789;27;775;-55
2021/07/22 10:35:32;;;;;;;;;;;;;;;20.66;59.07;100725.41;5157485;27;1909;-52
2021/07/22 10:38:02;;;;;;;;;;;;;;;20.16;60.49;100728.69;5159370;27;1345;-57
2021/07/22 10:40:46;;;;;;;;;;;;;;;19.91;61.21;100731.78;5155388;27;766;-60
2021/07/22 10:43:41;;;;;;;;;;;;;;;19.59;61.30;100727.78;5159036;27;996;-52
2021/07/22 10:46:08;;;;;;;;;;;;;;;19.77;61.79;100724.25;5138907;27;1186;-52
2021/07/22 10:48:33;;;;;;;;;;;;;;;20.12;60.17;100721.31;5175625;27;805;-56
2021/07/22 10:50:59;;;;;;;;;;;;;;;20.52;58.91;100730.06;5159283;27;1062;-60
2021/07/22 10:53:34;;;;;;;;;;;;;;;20.36;59.11;100737.78;5140642;27;1917;-60
2021/07/22 10:56:00;;;;;;;;;;;;;;;20.30;59.30;100733.44;5160214;27;1470;-54
2021/07/22 10:58:34;;;;;;;;;;;;;;;20.44;58.83;100733.50;5167513;27;1397;-54
2021/07/22 11:01:00;;;;;;;;;;;;;;;19.85;60.57;100731.06;5156210;27;1001;-55
2021/07/22 11:03:34;;;;;;;;;;;;;;;19.96;60.51;100742.78;5159097;27;759;-60
2021/07/22 11:06:00;;;;;;;;;;;;;;;19.38;61.20;100741.81;5169709;27;1636;-51
2021/07/22 11:08:26;;;;;;;;;;;;;;;19.73;61.36;100741.69;5168033;27;783;-48
2021/07/22 11:10:53;;;;;;;;;;;;;;;20.06;60.20;100739.84;5158527;27;968;-55
2021/07/22 11:13:33;;;;;;;;;;;;;;;20.28;59.23;100742.03;5158645;27;1988;-57
2021/07/22 11:15:59;;;;;;;;;;;;;;;20.47;58.59;100741.22;5157725;27;867;-58
2021/07/22 11:18:40;;;;;;;;;;;;;;;20.40;58.90;100744.34;5161955;27;1200;-51
2021/07/22 11:21:06;;;;;;;;;;;;;;;20.30;59.29;100734.28;5162408;27;752;-51
2021/07/22 11:23:31;;;;;;;;;;;;;;;20.04;60.45;100742.13;5168289;27;1566;-61
2021/07/22 11:25:56;;;;;;;;;;;;;;;20.04;60.37;100746.81;5118511;27;1415;-60
2021/07/22 11:28:22;;;;;;;;;;;;;;;19.10;60.38;100758.09;5160284;27;1124;-59
2021/07/22 11:30:57;;;;;;;;;;;;;;;19.82;61.18;100743.53;5141668;27;1092;-58
2021/07/22 11:33:23;;;;;;;;;;;;;;;20.18;60.68;100736.66;5155835;27;1963;-58
2021/07/22 11:35:56;;;;;;;;;;;;;;;20.95;60.60;100737.38;5157063;27;1350;-50
2021/07/22 11:38:21;;;;;;;;;;;;;;;20.77;62.99;100748.16;5139612;27;1375;-58
2021/07/22 11:40:47;;;;;;;;;;;;;;;20.65;65.12;100745.03;5163644;27;971;-55
2021/07/22 11:43:12;;;;;;;;;;;;;;;20.62;62.98;100738.19;5157820;27;1024;-55
2021/07/22 11:45:41;;;;;;;;;;;;;;;19.64;60.44;100734.06;5157945;27;743;-51
2021/07/22 11:48:21;;;;;;;;;;;;;;;20.46;62.14;100737.59;5162465;27;1488;-55
2021/07/22 11:50:56;;;;;;;;;;;;;;;20.37;62.44;100722.00;5148814;27;1374;-56
2021/07/22 11:53:22;;;;;;;;;;;;;;;20.44;59.72;100734.34;5139505;27;2006;-49
2021/07/22 11:55:47;;;;;;;;;;;;;;;19.98;58.62;100726.75;5150989;27;1304;-51
2021/07/22 11:58:16;;;;;;;;;;;;;;;19.86;57.48;100718.91;5158206;27;862;-59
2021/07/22 12:00:41;;;;;;;;;;;;;;;19.95;55.82;100719.06;5158401;27;829;-55
2021/07/22 12:03:07;;;;;;;;;;;;;;;19.79;57.23;100718.41;5158462;27;1426;-64
2021/07/22 12:05:32;;;;;;;;;;;;;;;19.99;57.63;100706.28;5163914;27;1361;-61
2021/07/22 12:08:15;;;;;;;;;;;;;;;20.28;58.39;100705.31;5162556;27;1408;-58
2021/07/22 12:10:41;;;;;;;;;;;;;;;20.50;59.05;100713.78;5165498;27;1325;-68
2021/07/22 12:13:08;;;;;;;;;;;;;;;20.61;59.40;100703.38;5157618;27;1897;-62
2021/07/22 12:15:37;;;;;;;;;;;;;;;20.16;61.45;100706.59;5157766;27;759;-55
2021/07/22 12:18:02;;;;;;;;;;;;;;;20.23;62.07;100710.91;5157136;27;835;-61
2021/07/22 12:20:28;;;;;;;;;;;;;;;19.76;62.34;100708.78;5126662;27;1533;-57
2021/07/22 12:22:53;;;;;;;;;;;;;;;19.19;62.29;100713.38;5163750;27;1338;-60
2021/07/22 12:25:19;;;;;;;;;;;;;;;19.71;63.68;100714.38;5170922;27;1472;-59
2021/07/22 12:27:52;;;;;;;;;;;;;;;20.22;63.77;100714.81;5128318;27;1236;-59
2021/07/22 12:30:17;;;;;;;;;;;;;;;20.44;62.81;100716.94;5170324;27;1360;-55
2021/07/22 12:32:49;;;;;;;;;;;;;;;20.64;61.87;100704.72;5159814;27;1141;-57
2021/07/22 12:35:29;;;;;;;;;;;;;;;20.20;62.90;100706.81;5157634;27;1913;-59
2021/07/22 12:37:58;;;;;;;;;;;;;;;20.18;63.18;100693.31;5157361;27;798;-55
2021/07/22 12:40:50;;;;;;;;;;;;;;;19.72;62.44;100693.94;5158855;27;1516;-54
2021/07/22 12:43:17;;;;;;;;;;;;;;;19.83;62.48;100681.69;5119738;27;1505;-51
2021/07/22 12:45:43;;;;;;;;;;;;;;;20.46;63.19;100689.84;5157653;27;1073;-57
2021/07/22 12:48:08;;;;;;;;;;;;;;;20.87;61.79;100699.38;5163232;27;1504;-44
2021/07/22 12:50:38;;;;;;;;;;;;;;;20.87;61.43;100691.09;5164552;27;1484;-46
2021/07/22 12:53:08;;;;;;;;;;;;;;;20.64;62.02;100691.72;5137361;27;907;-51
2021/07/22 12:55:34;;;;;;;;;;;;;;;20.31;63.11;100701.94;5122810;27;847;-49
2021/07/22 12:58:00;;;;;;;;;;;;;;;20.21;63.13;100691.88;5160743;27;1145;-46
2021/07/22 13:00:25;;;;;;;;;;;;;;;19.85;61.76;100703.47;5147010;27;1390;-49